Time;durP1;ratioP1;P1;durP2;ratioP2;P2;SDS_P1;SDS_P2;PMS_P1;PMS_P2;Temp;Humidity;BMP_temperature;BMP_pressure;BME280_temperature;BME280_humidity;BME280_pressure;Samples;Min_cycle;Max_cycle;Signal;HPM_P1;HPM_P2
2022/08/15 00:00:44;;;;;;;17.27;12.98;;;;;;;23.32;93.54;99920.69;5094985;28;20028;-77
2022/08/15 00:03:27;;;;;;;18.13;13.93;;;;;;;23.23;94.42;99928.47;5094289;28;20075;-77
2022/08/15 00:05:54;;;;;;;21.48;13.90;;;;;;;23.00;97.38;99920.69;5087202;28;20035;-77
2022/08/15 00:08:21;;;;;;;22.08;15.82;;;;;;;22.73;100.00;99918.09;5090411;28;20115;-78
2022/08/15 00:10:48;;;;;;;22.17;16.63;;;;;;;22.55;100.00;99915.22;5057661;28;20032;-78
2022/08/15 00:13:18;;;;;;;21.85;15.85;;;;;;;22.39;100.00;99911.00;5062357;28;20036;-79
2022/08/15 00:15:46;;;;;;;20.20;15.52;;;;;;;22.30;100.00;99915.09;5098241;28;20043;-78
2022/08/15 00:18:13;;;;;;;20.33;15.68;;;;;;;22.39;100.00;99913.78;5080611;28;20036;-77
2022/08/15 00:20:39;;;;;;;22.13;15.40;;;;;;;22.46;100.00;99914.59;5080430;28;20024;-78
2022/08/15 00:23:09;;;;;;;20.00;15.68;;;;;;;22.45;100.00;99907.31;5095290;28;20036;-78
2022/08/15 00:25:37;;;;;;;20.20;15.85;;;;;;;22.48;100.00;99911.59;5097815;28;20059;-78
2022/08/15 00:28:07;;;;;;;19.35;14.27;;;;;;;22.39;100.00;99914.63;5059336;28;20029;-77
2022/08/15 00:30:38;;;;;;;19.15;16.08;;;;;;;22.31;100.00;99919.63;5078084;28;20422;-78
2022/08/15 00:33:05;;;;;;;22.63;16.40;;;;;;;21.94;100.00;99916.50;5080356;28;20186;-77
2022/08/15 00:35:39;;;;;;;24.98;15.60;;;;;;;21.56;100.00;99920.91;5091417;28;20040;-78
2022/08/15 00:38:18;;;;;;;26.83;17.38;;;;;;;21.43;100.00;99921.75;5059552;28;20367;-78
2022/08/15 00:43:42;;;;;;;25.27;16.02;;;;;;;21.93;100.00;99920.38;5096784;28;20131;-78
2022/08/15 00:46:12;;;;;;;21.10;16.05;;;;;;;21.83;100.00;99921.69;5095206;28;20039;-78
2022/08/15 00:48:41;;;;;;;20.88;14.82;;;;;;;22.00;100.00;99922.06;5097128;28;20032;-78
2022/08/15 00:51:28;;;;;;;22.92;14.93;;;;;;;22.01;100.00;99922.94;5076517;28;20025;-78
2022/08/15 00:54:04;;;;;;;18.58;15.57;;;;;;;22.15;100.00;99912.56;5097426;28;20043;-78
2022/08/15 00:56:34;;;;;;;20.40;15.38;;;;;;;22.16;100.00;99917.09;5061843;28;20054;-78
2022/08/15 00:59:01;;;;;;;19.10;15.82;;;;;;;22.13;100.00;99904.44;5076626;28;20066;-78
2022/08/15 01:01:27;;;;;;;22.48;16.00;;;;;;;21.87;100.00;99910.09;5094147;28;20044;-79
2022/08/15 01:03:52;;;;;;;21.60;14.60;;;;;;;21.94;100.00;99909.03;5079019;28;20043;-78
2022/08/15 01:06:20;;;;;;;23.73;15.52;;;;;;;21.84;100.00;99911.38;5058439;28;20048;-78
2022/08/15 01:08:47;;;;;;;22.92;15.63;;;;;;;21.88;100.00;99912.69;5073145;28;20036;-77
2022/08/15 01:11:54;;;;;;;20.45;15.52;;;;;;;22.03;100.00;99917.97;5097783;28;20081;-79
2022/08/15 01:14:21;;;;;;;24.25;14.65;;;;;;;22.14;100.00;99914.50;5077441;28;20115;-78
2022/08/15 01:16:47;;;;;;;17.25;13.38;;;;;;;22.23;100.00;99917.91;5081251;28;20036;-78
2022/08/15 01:19:21;;;;;;;21.17;15.07;;;;;;;22.26;100.00;99920.25;5099387;28;20040;-78
2022/08/15 01:22:16;;;;;;;18.55;13.65;;;;;;;22.28;100.00;99911.66;5076968;28;20046;-79
2022/08/15 01:24:54;;;;;;;18.92;12.35;;;;;;;22.28;100.00;99906.94;5069504;28;20024;-78
2022/08/15 01:27:23;;;;;;;27.08;13.85;;;;;;;22.30;100.00;99903.94;5096170;28;20055;-79
2022/08/15 01:29:50;;;;;;;18.55;13.27;;;;;;;22.18;100.00;99906.56;5083167;28;20091;-77
2022/08/15 01:32:16;;;;;;;17.50;13.80;;;;;;;22.06;100.00;99909.19;5097312;28;20062;-77
2022/08/15 01:34:41;;;;;;;19.45;12.88;;;;;;;22.01;100.00;99912.63;5078198;28;20387;-77
2022/08/15 01:37:08;;;;;;;19.58;13.30;;;;;;;22.05;100.00;99912.19;5059774;28;20066;-77
2022/08/15 01:39:52;;;;;;;16.08;12.38;;;;;;;22.04;99.76;99919.72;5039551;28;20090;-78
2022/08/15 01:42:27;;;;;;;22.60;13.30;;;;;;;21.95;99.64;99910.72;5092416;28;20036;-77
2022/08/15 01:45:06;;;;;;;25.90;12.02;;;;;;;21.89;99.23;99917.19;5076030;28;20066;-77
2022/08/15 01:47:48;;;;;;;18.55;11.68;;;;;;;21.89;98.74;99911.63;5093739;28;20036;-77
2022/08/15 01:50:20;;;;;;;19.05;11.30;;;;;;;21.87;97.28;99910.94;5077651;28;20111;-76
2022/08/15 01:52:50;;;;;;;17.17;10.73;;;;;;;21.91;95.61;99919.75;5075714;28;20487;-77
2022/08/15 01:55:18;;;;;;;18.15;10.40;;;;;;;21.90;94.29;99910.53;5093783;28;20028;-79
2022/08/15 01:57:44;;;;;;;14.55;9.15;;;;;;;22.01;92.19;99912.63;5094545;28;20050;-78
2022/08/15 02:00:11;;;;;;;14.27;9.13;;;;;;;22.09;90.01;99916.28;5096990;28;20039;-78
2022/08/15 02:02:37;;;;;;;19.77;8.43;;;;;;;22.08;88.80;99918.19;5072794;28;20064;-78
2022/08/15 02:05:04;;;;;;;11.90;7.78;;;;;;;22.07;87.96;99919.28;5097084;28;20028;-78
2022/08/15 02:07:31;;;;;;;14.20;7.80;;;;;;;22.02;86.71;99922.72;5096372;28;20484;-78
2022/08/15 02:09:57;;;;;;;10.32;7.65;;;;;;;22.01;85.92;99921.00;5063446;28;20491;-77
2022/08/15 02:12:29;;;;;;;11.68;6.93;;;;;;;22.01;85.11;99925.72;5077012;28;20035;-78
2022/08/15 02:14:56;;;;;;;15.27;6.50;;;;;;;21.97;85.32;99921.66;5096713;28;20042;-77
2022/08/15 02:17:22;;;;;;;16.23;6.78;;;;;;;21.94;84.74;99925.75;5097793;28;20034;-79
2022/08/15 02:19:51;;;;;;;10.43;6.10;;;;;;;21.98;84.22;99927.00;5079082;28;20054;-78
2022/08/15 02:22:20;;;;;;;9.82;6.18;;;;;;;21.88;84.21;99926.63;5073347;28;20054;-78
2022/08/15 02:24:46;;;;;;;11.52;6.53;;;;;;;21.91;83.66;99928.13;5078143;28;20063;-77
2022/08/15 02:27:12;;;;;;;10.02;5.53;;;;;;;21.84;83.64;99934.56;5093928;28;20091;-79
2022/08/15 02:29:38;;;;;;;11.88;5.68;;;;;;;21.83;83.66;99930.06;5076395;28;20448;-78
2022/08/15 02:32:11;;;;;;;7.95;5.40;;;;;;;21.82;83.67;99947.88;5095034;28;20032;-78
2022/08/15 02:34:37;;;;;;;13.57;5.88;;;;;;;21.74;83.14;99936.06;5097441;28;20090;-77
2022/08/15 02:37:04;;;;;;;8.43;5.90;;;;;;;21.73;82.91;99928.81;5074955;28;20059;-78
2022/08/15 02:39:31;;;;;;;13.80;5.68;;;;;;;21.72;82.92;99929.88;5098018;28;20032;-80
2022/08/15 02:41:56;;;;;;;13.48;5.70;;;;;;;21.75;82.47;99926.66;5076073;28;20473;-77
2022/08/15 02:44:23;;;;;;;17.27;5.03;;;;;;;21.72;81.84;99929.88;5078813;28;20048;-78
2022/08/15 02:46:52;;;;;;;11.38;5.32;;;;;;;21.65;82.05;99927.09;5077162;28;20036;-77
2022/08/15 02:49:19;;;;;;;8.85;4.70;;;;;;;21.75;81.75;99930.28;5062022;28;20090;-78
2022/08/15 02:51:49;;;;;;;10.30;4.97;;;;;;;21.66;81.32;99932.47;5059517;28;20138;-78
2022/08/15 02:54:17;;;;;;;9.45;4.78;;;;;;;21.71;81.68;99934.59;5059459;28;20113;-77
2022/08/15 02:56:44;;;;;;;9.55;4.95;;;;;;;21.72;81.15;99936.28;5069721;28;20050;-78
2022/08/15 02:59:10;;;;;;;8.10;4.63;;;;;;;21.64;81.09;99940.19;5058913;28;20032;-79
2022/08/15 03:01:38;;;;;;;7.55;4.28;;;;;;;21.66;81.00;99932.47;5071099;28;20475;-78
2022/08/15 03:04:07;;;;;;;5.65;4.30;;;;;;;21.67;80.83;99928.56;5095505;28;20055;-77
2022/08/15 03:06:33;;;;;;;7.75;4.13;;;;;;;21.57;81.38;99942.09;5096019;28;20035;-78
2022/08/15 03:09:04;;;;;;;9.40;4.53;;;;;;;21.50;80.56;99944.06;5073779;28;20184;-78
2022/08/15 03:11:30;;;;;;;6.97;4.35;;;;;;;21.50;80.93;99937.59;5096599;28;20115;-77
2022/08/15 03:13:56;;;;;;;8.63;4.15;;;;;;;21.44;80.75;99939.31;5074393;28;20051;-78
2022/08/15 03:16:21;;;;;;;6.28;4.00;;;;;;;21.45;81.24;99943.81;5077823;28;20036;-78
2022/08/15 03:18:49;;;;;;;7.78;3.90;;;;;;;21.44;81.12;99948.50;5092742;28;20059;-78
2022/08/15 03:21:19;;;;;;;5.85;3.30;;;;;;;21.53;81.02;99949.19;5054857;28;20115;-77
2022/08/15 03:23:49;;;;;;;6.75;3.70;;;;;;;21.44;80.77;99956.88;5091194;28;20066;-77
2022/08/15 03:26:21;;;;;;;9.10;3.78;;;;;;;21.40;81.13;99958.38;5095809;28;20047;-78
2022/08/15 03:28:47;;;;;;;6.00;3.83;;;;;;;21.43;80.47;99962.66;5093034;28;20032;-78
2022/08/15 03:31:13;;;;;;;7.85;3.47;;;;;;;21.36;81.31;99959.03;5061112;28;20084;-77
2022/08/15 03:33:43;;;;;;;6.00;3.47;;;;;;;21.32;81.48;99955.81;5073338;28;20103;-78
2022/08/15 03:36:10;;;;;;;9.38;3.10;;;;;;;21.28;81.89;99958.19;5092574;28;20028;-77
2022/08/15 03:38:36;;;;;;;8.32;3.53;;;;;;;21.39;81.58;99947.47;5050444;28;20037;-78
2022/08/15 03:41:08;;;;;;;4.47;2.90;;;;;;;21.37;82.39;99944.03;5070174;28;20040;-78
2022/08/15 03:43:37;;;;;;;8.73;3.70;;;;;;;21.24;83.35;99937.38;5047267;28;20049;-78
2022/08/15 03:46:09;;;;;;;6.80;3.03;;;;;;;21.25;83.72;99952.16;5095303;28;20050;-78
2022/08/15 03:48:38;;;;;;;8.32;3.47;;;;;;;21.32;84.19;99944.69;5085519;28;20503;-78
2022/08/15 03:51:07;;;;;;;8.25;3.50;;;;;;;21.33;84.20;99946.38;5078771;28;20043;-77
2022/08/15 03:53:43;;;;;;;8.90;3.35;;;;;;;21.27;85.21;99938.91;5095431;28;20032;-78
2022/08/15 03:56:10;;;;;;;11.98;3.65;;;;;;;21.26;85.87;99939.97;5080861;28;20102;-77
2022/08/15 03:58:36;;;;;;;7.32;3.45;;;;;;;21.28;85.65;99937.81;5079659;28;20124;-78
2022/08/15 04:01:04;;;;;;;17.52;3.70;;;;;;;21.29;86.58;99945.94;5046442;28;20487;-78
2022/08/15 04:03:30;;;;;;;5.85;3.33;;;;;;;21.21;87.48;99948.09;5076385;28;20040;-78
2022/08/15 04:05:59;;;;;;;8.90;3.47;;;;;;;21.22;88.29;99941.47;5074616;28;20024;-78
2022/08/15 04:08:26;;;;;;;8.20;3.28;;;;;;;21.19;88.47;99937.19;5076520;28;20039;-77
2022/08/15 04:10:53;;;;;;;7.22;3.58;;;;;;;21.24;89.28;99940.16;5059437;28;20047;-77
2022/08/15 04:13:25;;;;;;;25.75;3.67;;;;;;;21.26;91.19;99937.16;5061103;28;20044;-77
2022/08/15 04:15:52;;;;;;;;;;;;;;;21.28;90.75;99941.47;5098685;28;20031;-79
2022/08/15 04:18:23;;;;;;;5.65;3.55;;;;;;;21.17;91.76;99944.88;5080143;28;19943;-79
2022/08/15 04:20:54;;;;;;;7.28;3.42;;;;;;;21.13;92.58;99954.72;5083194;28;20016;-79
2022/08/15 04:23:20;;;;;;;6.93;3.55;;;;;;;21.23;93.14;99945.94;5077999;28;20036;-76
2022/08/15 04:25:46;;;;;;;9.75;3.40;;;;;;;21.32;93.44;99953.03;5095105;28;20454;-77
2022/08/15 04:28:14;;;;;;;10.85;3.70;;;;;;;21.42;93.07;99955.38;5075613;28;20064;-76
2022/08/15 04:30:42;;;;;;;8.90;3.70;;;;;;;21.36;93.95;99951.50;5059033;28;20067;-76
2022/08/15 04:33:15;;;;;;;15.48;3.30;;;;;;;21.46;93.94;99948.28;5095466;28;20084;-78
2022/08/15 04:35:44;;;;;;;11.18;3.28;;;;;;;21.39;94.78;99953.03;5094222;28;20071;-78
2022/08/15 04:38:11;;;;;;;12.27;3.95;;;;;;;21.43;94.67;99943.16;5095950;28;20031;-77
2022/08/15 04:40:40;;;;;;;6.60;3.42;;;;;;;21.48;94.82;99960.13;5076149;28;20064;-77
2022/08/15 04:43:06;;;;;;;7.50;3.17;;;;;;;21.46;95.51;99965.88;5058313;28;20121;-78
2022/08/15 04:45:33;;;;;;;6.32;3.40;;;;;;;21.47;95.51;99964.81;5078093;28;20097;-77
2022/08/15 04:48:02;;;;;;;4.65;3.22;;;;;;;21.53;95.03;99960.34;5094455;28;20099;-76
2022/08/15 04:50:30;;;;;;;7.45;3.40;;;;;;;21.59;95.21;99966.97;5078005;28;20115;-76
2022/08/15 04:52:58;;;;;;;10.82;3.03;;;;;;;21.60;95.52;99975.09;5077170;28;20567;-77
2022/08/15 04:55:27;;;;;;;9.07;3.45;;;;;;;21.62;95.74;99972.97;5076177;28;20038;-76
2022/08/15 04:57:57;;;;;;;7.15;3.85;;;;;;;21.66;95.56;99981.72;5094979;28;20494;-76
2022/08/15 05:00:31;;;;;;;7.97;3.33;;;;;;;21.74;95.39;99972.31;5063267;28;20035;-75
2022/08/15 05:03:11;;;;;;;9.02;3.88;;;;;;;21.76;95.48;99978.50;5094108;28;20054;-80
2022/08/15 05:05:42;;;;;;;12.50;3.30;;;;;;;21.77;95.48;99985.81;5077791;28;20818;-76
2022/08/15 05:08:09;;;;;;;10.82;3.67;;;;;;;21.63;96.36;99984.97;5076998;28;20032;-78
2022/08/15 05:10:35;;;;;;;9.55;3.50;;;;;;;21.58;97.40;99988.41;5079653;28;20032;-77
2022/08/15 05:13:18;;;;;;;5.85;3.20;;;;;;;21.57;97.35;99991.41;5068949;28;20048;-77
2022/08/15 05:15:47;;;;;;;12.77;4.00;;;;;;;21.59;97.41;99994.81;5058479;28;20024;-77
2022/08/15 05:18:13;;;;;;;10.27;4.00;;;;;;;21.52;97.56;99992.03;5094415;28;20035;-78
2022/08/15 05:20:41;;;;;;;8.00;3.58;;;;;;;21.60;97.15;99988.19;5080943;28;20020;-78
2022/08/15 05:23:14;;;;;;;8.55;4.15;;;;;;;21.61;97.36;99990.75;5061357;28;20024;-78
2022/08/15 05:25:43;;;;;;;7.63;3.50;;;;;;;21.63;97.30;99998.91;5097632;28;20036;-77
2022/08/15 05:28:10;;;;;;;9.38;4.10;;;;;;;21.64;97.44;99997.81;5080353;28;20028;-77
2022/08/15 05:30:37;;;;;;;12.63;3.72;;;;;;;21.70;97.29;99996.97;5095238;28;20080;-76
2022/08/15 05:33:10;;;;;;;11.85;3.28;;;;;;;21.65;97.19;99991.19;5079271;28;20483;-77
2022/08/15 05:35:43;;;;;;;15.65;4.00;;;;;;;21.66;97.29;99990.97;5081263;28;20105;-78
2022/08/15 05:38:18;;;;;;;7.93;4.13;;;;;;;21.69;97.21;99992.44;5095163;28;20032;-76
2022/08/15 05:41:14;;;;;;;7.85;3.97;;;;;;;21.69;97.21;100006.38;5060642;28;20047;-78
2022/08/15 05:43:45;;;;;;;8.23;3.50;;;;;;;21.72;96.52;100017.09;5092902;28;20440;-76
2022/08/15 05:46:26;;;;;;;14.27;3.80;;;;;;;21.84;95.63;100014.50;5091585;28;20038;-77
2022/08/15 05:49:16;;;;;;;6.60;3.13;;;;;;;21.87;95.90;100008.50;5059734;28;20024;-77
2022/08/15 05:51:57;;;;;;;10.27;4.10;;;;;;;21.88;95.27;99995.44;5094290;28;20032;-77
2022/08/15 05:54:50;;;;;;;9.23;4.07;;;;;;;21.87;95.47;100007.66;5094198;28;20043;-77
2022/08/15 05:57:25;;;;;;;9.70;3.67;;;;;;;21.89;95.13;100003.59;5088312;28;20379;-77
2022/08/15 05:59:55;;;;;;;16.23;3.47;;;;;;;21.95;96.00;100002.69;5090820;28;20024;-76
2022/08/15 06:02:29;;;;;;;11.85;3.80;;;;;;;21.91;95.74;99995.88;5096361;28;20036;-77
2022/08/15 06:05:05;;;;;;;8.75;3.35;;;;;;;21.94;95.71;99998.22;5091805;28;20016;-76
2022/08/15 06:07:32;;;;;;;7.43;3.17;;;;;;;22.00;95.67;100011.25;5081068;28;20040;-76
2022/08/15 06:10:03;;;;;;;7.22;3.47;;;;;;;21.91;95.61;100011.75;5068444;28;20382;-77
2022/08/15 06:12:42;;;;;;;12.77;3.60;;;;;;;21.97;95.89;100005.28;5051861;28;20031;-76
2022/08/15 06:15:25;;;;;;;10.15;3.42;;;;;;;21.97;95.46;100008.94;5066661;28;20035;-77
2022/08/15 06:17:56;;;;;;;10.15;3.22;;;;;;;22.02;95.53;100020.28;5075928;28;20103;-77
2022/08/15 06:20:31;;;;;;;14.50;3.38;;;;;;;22.01;95.30;100021.34;5093375;28;20438;-77
2022/08/15 06:23:12;;;;;;;10.07;3.60;;;;;;;22.11;94.86;100022.84;5087977;28;20087;-76
2022/08/15 06:26:04;;;;;;;6.78;3.17;;;;;;;22.09;95.11;100023.06;5068293;28;20028;-77
2022/08/15 06:28:44;;;;;;;7.25;3.50;;;;;;;22.21;94.53;100018.50;5084578;28;20032;-77
2022/08/15 06:31:31;;;;;;;7.93;3.22;;;;;;;22.28;94.48;100015.69;5077264;28;20042;-76
2022/08/15 06:34:20;;;;;;;7.85;3.20;;;;;;;22.33;94.36;100006.72;5077171;28;20032;-76
2022/08/15 06:37:29;;;;;;;8.77;3.20;;;;;;;22.44;93.14;99999.59;5076377;28;20019;-77
2022/08/15 06:40:04;;;;;;;9.00;3.00;;;;;;;22.49;93.15;100002.59;5095039;28;20153;-77
2022/08/15 06:42:43;;;;;;;7.53;3.00;;;;;;;22.37;93.43;100006.06;5074722;28;20021;-77
2022/08/15 06:45:24;;;;;;;9.38;3.15;;;;;;;22.41;93.13;100014.84;5076873;28;20048;-77
2022/08/15 06:47:58;;;;;;;8.68;2.90;;;;;;;22.29;94.38;100023.03;5093647;28;20069;-78
2022/08/15 06:50:46;;;;;;;8.30;3.20;;;;;;;22.39;94.35;100015.06;5077027;28;20483;-77
2022/08/15 06:53:21;;;;;;;16.98;3.70;;;;;;;22.44;94.30;100013.56;5092262;28;20077;-77
2022/08/15 06:55:58;;;;;;;10.23;3.83;;;;;;;22.49;94.35;100022.13;5076815;28;20483;-77
2022/08/15 06:58:45;;;;;;;10.13;3.22;;;;;;;22.44;94.99;100022.78;5094647;28;20036;-77
2022/08/15 07:01:27;;;;;;;9.32;3.83;;;;;;;22.36;95.66;100020.22;5093625;28;20032;-76
2022/08/15 07:04:22;;;;;;;10.30;3.25;;;;;;;22.41;96.20;100025.16;5075041;28;20057;-77
2022/08/15 07:06:58;;;;;;;11.32;3.17;;;;;;;22.57;95.91;100019.91;5094288;28;20032;-78
2022/08/15 07:09:45;;;;;;;7.43;3.38;;;;;;;22.69;95.54;100024.81;5059579;28;20509;-77
2022/08/15 07:12:36;;;;;;;11.05;3.42;;;;;;;22.76;95.23;100023.72;5059469;28;20043;-76
2022/08/15 07:15:18;;;;;;;19.38;3.67;;;;;;;22.83;95.31;100022.81;5055093;28;20040;-77
2022/08/15 07:17:55;;;;;;;10.70;4.00;;;;;;;23.08;94.08;100026.56;5088668;28;20024;-77
2022/08/15 07:20:20;;;;;;;9.20;3.90;;;;;;;23.38;93.21;100027.88;5059286;28;20466;-77
2022/08/15 07:22:47;;;;;;;7.82;3.65;;;;;;;23.37;93.04;100026.16;5055161;28;20032;-76
2022/08/15 07:25:19;;;;;;;8.70;3.55;;;;;;;23.62;92.64;100021.44;5075864;28;20406;-78
2022/08/15 07:28:05;;;;;;;8.90;4.00;;;;;;;23.80;90.78;100022.59;5058862;28;20160;-77
2022/08/15 07:31:04;;;;;;;12.30;3.70;;;;;;;23.60;92.33;100009.63;5093633;28;20039;-76
2022/08/15 07:33:32;;;;;;;8.63;3.97;;;;;;;23.54;92.73;100013.34;5056980;28;20059;-77
2022/08/15 07:36:06;;;;;;;11.95;3.85;;;;;;;23.61;93.21;100022.53;5087047;28;20032;-76
2022/08/15 07:38:32;;;;;;;8.05;4.50;;;;;;;23.54;92.91;100016.13;5075621;28;20024;-77
2022/08/15 07:41:32;;;;;;;9.05;3.95;;;;;;;24.64;88.34;100019.34;5075500;28;20036;-76
2022/08/15 07:44:24;;;;;;;8.93;3.92;;;;;;;25.31;85.40;100016.50;5055988;28;20028;-77
2022/08/15 07:46:51;;;;;;;10.82;4.43;;;;;;;24.81;86.92;100026.03;5073362;28;20189;-76
2022/08/15 07:49:20;;;;;;;9.30;4.47;;;;;;;24.73;87.45;100035.59;5055153;28;20123;-76
2022/08/15 07:51:50;;;;;;;19.40;4.90;;;;;;;25.19;85.49;100026.78;5052297;28;20367;-77
2022/08/15 07:54:46;;;;;;;15.00;5.32;;;;;;;24.69;87.19;100030.69;5073035;28;20028;-76
2022/08/15 07:57:29;;;;;;;9.05;5.15;;;;;;;24.59;88.06;100040.50;5049798;28;20542;-77
2022/08/15 08:00:13;;;;;;;13.30;5.40;;;;;;;24.84;87.30;100036.75;5073490;28;20089;-76
2022/08/15 08:02:50;;;;;;;18.25;5.32;;;;;;;24.50;89.41;100039.09;5071997;28;20476;-77
2022/08/15 08:05:21;;;;;;;10.85;5.72;;;;;;;24.06;92.27;100034.63;5070939;28;20468;-77
2022/08/15 08:07:49;;;;;;;21.83;5.47;;;;;;;23.97;93.25;100045.25;5072269;28;20032;-78
2022/08/15 08:10:51;;;;;;;11.70;5.75;;;;;;;23.95;93.73;100041.81;5051273;28;20115;-76
2022/08/15 08:14:05;;;;;;;9.85;5.95;;;;;;;23.87;94.52;100036.53;5061268;28;20037;-77
2022/08/15 08:16:40;;;;;;;16.13;6.10;;;;;;;23.73;95.65;100035.78;5024572;28;20080;-77
2022/08/15 08:19:19;;;;;;;10.95;5.70;;;;;;;23.60;96.90;100042.31;5071220;28;20025;-76
2022/08/15 08:22:02;;;;;;;21.30;6.65;;;;;;;23.50;97.80;100045.63;5072197;28;20489;-76
2022/08/15 08:24:45;;;;;;;13.75;5.80;;;;;;;23.52;98.64;100037.03;5068711;28;20035;-76
2022/08/15 08:27:40;;;;;;;11.77;6.47;;;;;;;23.36;99.58;100038.41;5071414;28;20029;-77
2022/08/15 08:30:05;;;;;;;14.10;6.60;;;;;;;23.35;100.00;100031.97;5065274;28;20438;-77
2022/08/15 08:32:43;;;;;;;11.63;6.18;;;;;;;23.34;100.00;100032.22;5073546;28;20047;-77
2022/08/15 08:35:14;;;;;;;22.85;6.50;;;;;;;23.51;100.00;100035.28;5073323;28;20498;-77
2022/08/15 08:37:45;;;;;;;18.70;7.00;;;;;;;23.38;100.00;100027.88;5074639;28;20036;-77
2022/08/15 08:43:41;;;;;;;12.95;6.63;;;;;;;23.40;100.00;100034.94;5041759;28;20049;-76
2022/08/15 08:46:37;;;;;;;20.23;7.78;;;;;;;23.42;100.00;100029.13;5078856;28;20036;-76
2022/08/15 08:49:30;;;;;;;17.13;7.30;;;;;;;23.44;100.00;100033.41;5078523;28;20024;-76
2022/08/15 08:52:13;;;;;;;18.90;7.93;;;;;;;23.25;100.00;100038.06;5070262;28;20060;-76
2022/08/15 08:54:59;;;;;;;18.67;7.53;;;;;;;23.32;100.00;100040.81;5095035;28;20449;-76
2022/08/15 08:57:32;;;;;;;27.30;8.65;;;;;;;23.39;100.00;100040.75;5091802;28;20047;-76
2022/08/15 09:00:00;;;;;;;;;;;;;;;23.16;100.00;100041.34;5080739;28;20054;-76
2022/08/15 09:02:36;;;;;;;15.65;8.38;;;;;;;23.09;100.00;100041.41;5095712;28;19911;-76
2022/08/15 09:05:14;;;;;;;20.17;9.25;;;;;;;23.06;100.00;100048.25;5079455;28;20028;-76
2022/08/15 09:07:51;;;;;;;22.00;9.00;;;;;;;23.13;100.00;100049.06;5094615;28;20032;-76
2022/08/15 09:10:32;;;;;;;25.17;10.38;;;;;;;23.18;100.00;100050.34;5077111;28;20028;-76
2022/08/15 09:15:53;;;;;;;22.00;9.93;;;;;;;23.20;100.00;100045.41;5092205;28;20384;-76
2022/08/15 09:18:33;;;;;;;20.27;9.77;;;;;;;23.24;100.00;100061.47;5077841;28;20040;-76
2022/08/15 09:21:00;;;;;;;27.98;10.70;;;;;;;23.27;100.00;100046.22;5075806;28;20072;-76
2022/08/15 09:23:34;;;;;;;21.05;10.07;;;;;;;23.29;100.00;100049.66;5095654;28;20036;-76
2022/08/15 09:26:31;;;;;;;21.25;10.52;;;;;;;23.50;100.00;100054.00;5061255;28;20039;-76
2022/08/15 09:29:08;;;;;;;29.77;10.70;;;;;;;23.71;100.00;100057.47;5093388;28;20028;-76
2022/08/15 09:31:37;;;;;;;29.30;11.45;;;;;;;23.84;100.00;100057.41;5059299;28;20772;-76
2022/08/15 09:34:25;;;;;;;19.52;10.95;;;;;;;24.01;100.00;100068.88;5075493;28;20032;-75
2022/08/15 09:36:54;;;;;;;26.38;10.95;;;;;;;23.98;100.00;100058.16;5095875;28;20038;-76
2022/08/15 09:39:41;;;;;;;29.05;11.75;;;;;;;23.94;100.00;100063.34;5092875;28;20077;-75
2022/08/15 09:42:31;;;;;;;28.23;11.70;;;;;;;24.20;100.00;100069.75;5074062;28;20044;-76
2022/08/15 09:45:21;;;;;;;38.90;11.63;;;;;;;24.04;100.00;100063.69;5091647;28;20507;-76
2022/08/15 09:47:57;;;;;;;31.05;12.43;;;;;;;23.84;100.00;100060.19;5074593;28;20036;-76
2022/08/15 09:50:37;;;;;;;35.20;12.60;;;;;;;23.94;100.00;100062.47;5094393;28;20028;-76
2022/08/15 09:53:23;;;;;;;34.90;12.90;;;;;;;24.03;100.00;100058.31;5094358;28;20157;-76
2022/08/15 09:55:51;;;;;;;26.73;12.40;;;;;;;23.89;100.00;100065.97;5077002;28;20028;-76
2022/08/15 09:58:22;;;;;;;41.42;13.15;;;;;;;23.86;100.00;100074.81;5092735;28;20387;-77
2022/08/15 10:01:14;;;;;;;42.33;12.07;;;;;;;23.77;100.00;100067.75;5095281;28;20032;-76
2022/08/15 10:03:43;;;;;;;25.63;12.00;;;;;;;23.94;100.00;100071.75;5059576;28;20036;-76
2022/08/15 10:06:13;;;;;;;22.85;11.55;;;;;;;23.95;100.00;100076.22;5059120;28;20036;-76
2022/08/15 10:08:52;;;;;;;29.83;12.25;;;;;;;23.80;100.00;100075.69;5092010;28;20036;-76
2022/08/15 10:11:30;;;;;;;32.47;11.57;;;;;;;23.91;100.00;100071.31;5076638;28;20044;-76
2022/08/15 10:14:20;;;;;;;24.50;11.68;;;;;;;23.80;100.00;100079.34;5093839;28;20076;-75
2022/08/15 10:16:55;;;;;;;30.27;12.02;;;;;;;23.64;100.00;100072.38;5056299;28;20104;-75
2022/08/15 10:19:27;;;;;;;28.88;11.82;;;;;;;23.82;100.00;100071.59;5075044;28;20031;-76
2022/08/15 10:21:58;;;;;;;36.35;12.68;;;;;;;23.62;100.00;100076.47;5071224;28;20028;-76
2022/08/15 10:24:38;;;;;;;35.40;11.82;;;;;;;23.67;100.00;100065.47;5096008;28;20032;-76
2022/08/15 10:27:09;;;;;;;34.28;12.23;;;;;;;23.65;100.00;100062.91;5094548;28;20097;-75
2022/08/15 10:29:39;;;;;;;28.73;12.50;;;;;;;23.53;100.00;100070.31;5095439;28;20074;-77
2022/08/15 10:32:38;;;;;;;31.55;12.55;;;;;;;23.36;100.00;100074.75;5076354;28;20028;-76
2022/08/15 10:35:45;;;;;;;27.63;12.43;;;;;;;23.47;100.00;100071.22;5077467;28;20039;-76
2022/08/15 10:38:21;;;;;;;34.75;12.73;;;;;;;23.33;100.00;100070.44;5072975;28;20101;-75
2022/08/15 10:41:28;;;;;;;32.65;12.32;;;;;;;23.37;100.00;100082.06;5076985;28;20115;-76
2022/08/15 10:44:01;;;;;;;29.92;12.32;;;;;;;23.38;100.00;100076.25;4978144;28;20445;-78
2022/08/15 10:46:57;;;;;;;32.75;12.68;;;;;;;23.46;100.00;100089.06;5051262;28;20123;-77
2022/08/15 10:50:07;;;;;;;25.75;11.52;;;;;;;23.52;100.00;100092.91;5076157;28;20054;-77
2022/08/15 10:52:47;;;;;;;34.33;13.15;;;;;;;23.51;100.00;100089.25;5018109;28;20048;-77
2022/08/15 10:55:23;;;;;;;27.95;12.38;;;;;;;23.66;100.00;100095.38;5076089;28;20028;-77
2022/08/15 10:57:52;;;;;;;29.90;12.05;;;;;;;23.93;100.00;100097.13;5093557;28;20028;-78
2022/08/15 11:00:37;;;;;;;33.47;12.07;;;;;;;24.22;100.00;100098.38;5091028;28;20032;-77
2022/08/15 11:03:10;;;;;;;36.35;12.75;;;;;;;24.09;100.00;100102.16;5076618;28;20024;-77
2022/08/15 11:05:40;;;;;;;40.90;12.52;;;;;;;23.98;100.00;100092.56;5094132;28;20028;-76
2022/08/15 11:08:13;;;;;;;30.05;11.70;;;;;;;24.20;100.00;100098.59;5076612;28;20112;-77
2022/08/15 11:10:39;;;;;;;29.83;13.82;;;;;;;24.16;100.00;100096.50;5093959;28;20036;-78
2022/08/15 11:13:12;;;;;;;33.47;13.57;;;;;;;24.43;100.00;100099.00;5094276;28;20032;-77
2022/08/15 11:15:55;;;;;;;34.47;12.50;;;;;;;24.53;100.00;100096.53;5094432;28;20020;-76
2022/08/15 11:18:33;;;;;;;39.78;12.93;;;;;;;24.30;100.00;100100.00;5076407;28;20032;-76
2022/08/15 11:21:36;;;;;;;29.10;12.32;;;;;;;24.72;99.51;100101.06;5092580;28;20024;-77
2022/08/15 11:24:07;;;;;;;40.75;13.63;;;;;;;25.13;98.30;100098.63;5092926;28;20490;-76
2022/08/15 11:26:37;;;;;;;33.50;12.25;;;;;;;25.46;95.79;100102.94;5076250;28;20387;-77
2022/08/15 11:29:06;;;;;;;34.75;12.93;;;;;;;25.47;95.96;100101.84;5076519;28;20016;-77
2022/08/15 11:31:52;;;;;;;35.30;14.68;;;;;;;25.08;100.00;100099.31;5076368;28;20135;-77
2022/08/15 11:34:32;;;;;;;40.10;15.25;;;;;;;24.92;100.00;100097.16;5059860;28;20105;-77
2022/08/15 11:37:12;;;;;;;28.63;13.30;;;;;;;24.97;100.00;100102.91;5060063;28;20123;-76
2022/08/15 11:39:44;;;;;;;42.92;14.48;;;;;;;25.05;100.00;100102.59;5060198;28;20035;-77
2022/08/15 11:42:17;;;;;;;34.83;15.80;;;;;;;25.17;100.00;100108.28;5075947;28;20035;-77
2022/08/15 11:44:53;;;;;;;33.92;15.10;;;;;;;25.24;99.47;100102.59;5059742;28;20565;-77
2022/08/15 11:47:20;;;;;;;36.53;14.80;;;;;;;24.91;99.67;100104.72;5094894;28;20387;-76
2022/08/15 11:49:53;;;;;;;43.00;14.73;;;;;;;25.11;97.61;100104.47;5055326;28;20494;-76
2022/08/15 11:52:29;;;;;;;28.60;13.73;;;;;;;25.17;96.86;100105.47;5055892;28;20116;-77
2022/08/15 11:55:12;;;;;;;33.97;14.50;;;;;;;25.24;94.89;100116.59;5094425;28;20036;-76
2022/08/15 11:57:47;;;;;;;39.03;14.85;;;;;;;25.25;95.19;100116.34;5056738;28;20391;-77
2022/08/15 12:00:27;;;;;;;31.25;13.40;;;;;;;25.23;94.23;100112.91;5092412;28;20426;-76
2022/08/15 12:02:55;;;;;;;30.17;13.10;;;;;;;25.44;91.09;100119.97;5075138;28;20028;-77